Terminal Aerodrome Forecast
Issued by NWS North Platte, NE

Home | Current Version | Previous Version | Graphics & Text | Print | Product List | Glossary On
Versions: 1 2 3 4 5 6 7 8 9 10 11 12 13 14 15 16 17 18 19 20 21
000
FTUS43 KLBF 191100
TAFVTN
TAF
KVTN 191120Z 1912/2012 34016G24KT P6SM BKN070 OVC090
     FM191500 34024G34KT P6SM BKN080
     FM200100 33017G26KT P6SM SCT080
     FM200300 32010KT P6SM SCT080=

USA.gov is the U.S. government's official web portal to all federal, state and local government web resources and services.